sensor_id;sensor_type;location;lat;lon;timestamp;P1;durP1;ratioP1;P2;durP2;ratioP2
11709;SDS011;5911;51.036;6.972;2024-02-14T00:01:08;3.87;;;2.47;;
11709;SDS011;5911;51.036;6.972;2024-02-14T00:03:36;3.83;;;2.40;;
11709;SDS011;5911;51.036;6.972;2024-02-14T00:06:04;2.77;;;2.00;;
11709;SDS011;5911;51.036;6.972;2024-02-14T00:08:32;2.50;;;1.90;;
11709;SDS011;5911;51.036;6.972;2024-02-14T00:11:00;5.97;;;2.03;;
11709;SDS011;5911;51.036;6.972;2024-02-14T00:13:28;2.10;;;1.87;;
11709;SDS011;5911;51.036;6.972;2024-02-14T00:15:57;2.50;;;1.70;;
11709;SDS011;5911;51.036;6.972;2024-02-14T00:18:26;3.40;;;1.67;;
11709;SDS011;5911;51.036;6.972;2024-02-14T00:20:53;2.57;;;1.77;;
11709;SDS011;5911;51.036;6.972;2024-02-14T00:23:20;4.43;;;2.10;;
11709;SDS011;5911;51.036;6.972;2024-02-14T00:25:48;3.40;;;1.80;;
11709;SDS011;5911;51.036;6.972;2024-02-14T00:28:15;4.13;;;2.03;;
11709;SDS011;5911;51.036;6.972;2024-02-14T00:30:43;2.10;;;1.40;;
11709;SDS011;5911;51.036;6.972;2024-02-14T00:33:10;2.73;;;1.70;;
11709;SDS011;5911;51.036;6.972;2024-02-14T00:35:39;3.20;;;1.33;;
11709;SDS011;5911;51.036;6.972;2024-02-14T00:38:07;2.53;;;1.30;;
11709;SDS011;5911;51.036;6.972;2024-02-14T00:40:34;1.83;;;1.10;;
11709;SDS011;5911;51.036;6.972;2024-02-14T00:43:02;2.23;;;1.43;;
11709;SDS011;5911;51.036;6.972;2024-02-14T00:45:29;1.43;;;1.10;;
11709;SDS011;5911;51.036;6.972;2024-02-14T00:47:57;3.10;;;1.10;;
11709;SDS011;5911;51.036;6.972;2024-02-14T00:50:25;2.07;;;1.20;;
11709;SDS011;5911;51.036;6.972;2024-02-14T00:52:54;2.07;;;1.00;;
11709;SDS011;5911;51.036;6.972;2024-02-14T00:55:21;1.37;;;1.20;;
11709;SDS011;5911;51.036;6.972;2024-02-14T00:57:49;1.80;;;1.20;;
11709;SDS011;5911;51.036;6.972;2024-02-14T01:00:17;1.77;;;1.07;;
11709;SDS011;5911;51.036;6.972;2024-02-14T01:02:44;1.60;;;0.87;;
11709;SDS011;5911;51.036;6.972;2024-02-14T01:05:12;1.90;;;0.87;;
11709;SDS011;5911;51.036;6.972;2024-02-14T01:07:39;1.93;;;1.30;;
11709;SDS011;5911;51.036;6.972;2024-02-14T01:10:08;1.13;;;1.03;;
11709;SDS011;5911;51.036;6.972;2024-02-14T01:12:36;1.27;;;1.00;;
11709;SDS011;5911;51.036;6.972;2024-02-14T01:15:04;1.47;;;1.20;;
11709;SDS011;5911;51.036;6.972;2024-02-14T01:17:31;1.53;;;0.90;;
11709;SDS011;5911;51.036;6.972;2024-02-14T01:19:59;1.33;;;1.00;;
11709;SDS011;5911;51.036;6.972;2024-02-14T01:22:27;1.10;;;0.83;;
11709;SDS011;5911;51.036;6.972;2024-02-14T01:24:55;1.27;;;1.00;;
11709;SDS011;5911;51.036;6.972;2024-02-14T01:27:23;3.43;;;1.27;;
11709;SDS011;5911;51.036;6.972;2024-02-14T01:29:51;1.03;;;0.90;;
11709;SDS011;5911;51.036;6.972;2024-02-14T01:32:20;1.30;;;1.20;;
11709;SDS011;5911;51.036;6.972;2024-02-14T01:34:48;2.03;;;0.90;;
11709;SDS011;5911;51.036;6.972;2024-02-14T01:37:16;1.10;;;1.00;;
11709;SDS011;5911;51.036;6.972;2024-02-14T01:39:43;1.70;;;1.07;;
11709;SDS011;5911;51.036;6.972;2024-02-14T01:42:11;1.87;;;1.20;;
11709;SDS011;5911;51.036;6.972;2024-02-14T01:44:39;2.47;;;1.20;;
11709;SDS011;5911;51.036;6.972;2024-02-14T01:47:07;1.03;;;0.93;;
11709;SDS011;5911;51.036;6.972;2024-02-14T01:49:35;1.13;;;0.90;;
11709;SDS011;5911;51.036;6.972;2024-02-14T01:52:04;3.70;;;1.03;;
11709;SDS011;5911;51.036;6.972;2024-02-14T01:54:31;1.73;;;1.17;;
11709;SDS011;5911;51.036;6.972;2024-02-14T01:57:00;2.77;;;1.30;;
11709;SDS011;5911;51.036;6.972;2024-02-14T01:59:28;1.20;;;0.90;;
11709;SDS011;5911;51.036;6.972;2024-02-14T02:01:58;1.13;;;1.00;;
11709;SDS011;5911;51.036;6.972;2024-02-14T02:04:26;1.43;;;0.90;;
11709;SDS011;5911;51.036;6.972;2024-02-14T02:06:53;2.13;;;1.17;;
11709;SDS011;5911;51.036;6.972;2024-02-14T02:09:22;2.00;;;1.10;;
11709;SDS011;5911;51.036;6.972;2024-02-14T02:11:50;1.20;;;1.00;;
11709;SDS011;5911;51.036;6.972;2024-02-14T02:14:20;1.20;;;1.07;;
11709;SDS011;5911;51.036;6.972;2024-02-14T02:16:48;1.03;;;1.00;;
11709;SDS011;5911;51.036;6.972;2024-02-14T02:19:17;1.67;;;1.00;;
11709;SDS011;5911;51.036;6.972;2024-02-14T02:21:45;1.27;;;0.97;;
11709;SDS011;5911;51.036;6.972;2024-02-14T02:24:14;2.43;;;0.90;;
11709;SDS011;5911;51.036;6.972;2024-02-14T02:26:42;2.10;;;0.90;;
11709;SDS011;5911;51.036;6.972;2024-02-14T02:29:10;2.00;;;0.90;;
11709;SDS011;5911;51.036;6.972;2024-02-14T02:31:37;0.87;;;0.73;;
11709;SDS011;5911;51.036;6.972;2024-02-14T02:34:05;1.60;;;1.10;;
11709;SDS011;5911;51.036;6.972;2024-02-14T02:36:33;1.67;;;0.90;;
11709;SDS011;5911;51.036;6.972;2024-02-14T02:39:02;0.77;;;0.70;;
11709;SDS011;5911;51.036;6.972;2024-02-14T02:41:31;1.33;;;0.80;;
11709;SDS011;5911;51.036;6.972;2024-02-14T02:43:59;0.57;;;0.50;;
11709;SDS011;5911;51.036;6.972;2024-02-14T02:46:27;1.33;;;0.80;;
11709;SDS011;5911;51.036;6.972;2024-02-14T02:48:56;0.70;;;0.70;;
11709;SDS011;5911;51.036;6.972;2024-02-14T02:51:25;1.17;;;0.70;;
11709;SDS011;5911;51.036;6.972;2024-02-14T02:53:54;0.80;;;0.80;;
11709;SDS011;5911;51.036;6.972;2024-02-14T02:56:21;1.30;;;0.77;;
11709;SDS011;5911;51.036;6.972;2024-02-14T02:58:54;0.73;;;0.70;;
11709;SDS011;5911;51.036;6.972;2024-02-14T03:01:22;1.20;;;0.90;;
11709;SDS011;5911;51.036;6.972;2024-02-14T03:03:51;2.67;;;0.87;;
11709;SDS011;5911;51.036;6.972;2024-02-14T03:06:18;0.63;;;0.63;;
11709;SDS011;5911;51.036;6.972;2024-02-14T03:08:46;1.40;;;0.67;;
11709;SDS011;5911;51.036;6.972;2024-02-14T03:11:15;3.47;;;1.13;;
11709;SDS011;5911;51.036;6.972;2024-02-14T03:13:42;1.40;;;1.20;;
11709;SDS011;5911;51.036;6.972;2024-02-14T03:16:11;0.80;;;0.80;;
11709;SDS011;5911;51.036;6.972;2024-02-14T03:18:41;1.07;;;0.90;;
11709;SDS011;5911;51.036;6.972;2024-02-14T03:21:08;0.80;;;0.80;;
11709;SDS011;5911;51.036;6.972;2024-02-14T03:23:38;0.97;;;0.83;;
11709;SDS011;5911;51.036;6.972;2024-02-14T03:26:06;0.90;;;0.90;;
11709;SDS011;5911;51.036;6.972;2024-02-14T03:28:35;0.77;;;0.70;;
11709;SDS011;5911;51.036;6.972;2024-02-14T03:31:03;1.23;;;0.80;;
11709;SDS011;5911;51.036;6.972;2024-02-14T03:33:31;2.60;;;0.90;;
11709;SDS011;5911;51.036;6.972;2024-02-14T03:35:59;1.00;;;0.90;;
11709;SDS011;5911;51.036;6.972;2024-02-14T03:38:27;1.00;;;0.90;;
11709;SDS011;5911;51.036;6.972;2024-02-14T03:40:54;1.00;;;0.90;;
11709;SDS011;5911;51.036;6.972;2024-02-14T03:43:22;0.80;;;0.80;;
11709;SDS011;5911;51.036;6.972;2024-02-14T03:45:50;1.03;;;0.77;;
11709;SDS011;5911;51.036;6.972;2024-02-14T03:48:18;1.13;;;0.80;;
11709;SDS011;5911;51.036;6.972;2024-02-14T03:50:46;1.30;;;0.67;;
11709;SDS011;5911;51.036;6.972;2024-02-14T03:53:14;1.13;;;0.80;;
11709;SDS011;5911;51.036;6.972;2024-02-14T03:55:42;0.83;;;0.80;;
11709;SDS011;5911;51.036;6.972;2024-02-14T03:58:09;3.40;;;1.20;;
11709;SDS011;5911;51.036;6.972;2024-02-14T04:00:37;0.90;;;0.70;;
11709;SDS011;5911;51.036;6.972;2024-02-14T04:03:04;1.67;;;0.80;;
11709;SDS011;5911;51.036;6.972;2024-02-14T04:05:33;1.40;;;0.70;;
11709;SDS011;5911;51.036;6.972;2024-02-14T04:08:02;1.53;;;1.00;;
11709;SDS011;5911;51.036;6.972;2024-02-14T04:10:29;1.30;;;0.83;;
11709;SDS011;5911;51.036;6.972;2024-02-14T04:12:57;1.10;;;0.93;;
11709;SDS011;5911;51.036;6.972;2024-02-14T04:15:24;0.98;;;0.80;;
11709;SDS011;5911;51.036;6.972;2024-02-14T04:17:52;0.97;;;0.80;;
11709;SDS011;5911;51.036;6.972;2024-02-14T04:20:20;1.30;;;1.10;;
11709;SDS011;5911;51.036;6.972;2024-02-14T04:22:47;1.70;;;1.00;;
11709;SDS011;5911;51.036;6.972;2024-02-14T04:25:16;1.47;;;0.87;;
11709;SDS011;5911;51.036;6.972;2024-02-14T04:27:44;1.40;;;1.00;;
11709;SDS011;5911;51.036;6.972;2024-02-14T04:30:12;1.67;;;1.07;;
11709;SDS011;5911;51.036;6.972;2024-02-14T04:32:40;0.80;;;0.80;;
11709;SDS011;5911;51.036;6.972;2024-02-14T04:35:10;1.23;;;0.90;;
11709;SDS011;5911;51.036;6.972;2024-02-14T04:37:37;1.60;;;0.90;;
11709;SDS011;5911;51.036;6.972;2024-02-14T04:40:06;0.70;;;0.70;;
11709;SDS011;5911;51.036;6.972;2024-02-14T04:42:35;1.10;;;1.00;;
11709;SDS011;5911;51.036;6.972;2024-02-14T04:45:03;0.98;;;0.77;;
11709;SDS011;5911;51.036;6.972;2024-02-14T04:47:30;0.80;;;0.80;;
11709;SDS011;5911;51.036;6.972;2024-02-14T04:49:58;1.25;;;0.90;;
11709;SDS011;5911;51.036;6.972;2024-02-14T04:52:26;1.10;;;1.00;;
11709;SDS011;5911;51.036;6.972;2024-02-14T04:54:53;0.80;;;0.80;;
11709;SDS011;5911;51.036;6.972;2024-02-14T04:57:22;1.65;;;1.00;;
11709;SDS011;5911;51.036;6.972;2024-02-14T04:59:51;1.83;;;0.90;;
11709;SDS011;5911;51.036;6.972;2024-02-14T05:02:18;1.50;;;1.30;;
11709;SDS011;5911;51.036;6.972;2024-02-14T05:04:46;1.65;;;1.15;;
11709;SDS011;5911;51.036;6.972;2024-02-14T05:07:13;1.27;;;1.17;;
11709;SDS011;5911;51.036;6.972;2024-02-14T05:09:42;1.65;;;1.20;;
11709;SDS011;5911;51.036;6.972;2024-02-14T05:12:10;1.50;;;1.30;;
11709;SDS011;5911;51.036;6.972;2024-02-14T05:14:38;1.45;;;1.00;;
11709;SDS011;5911;51.036;6.972;2024-02-14T05:17:08;2.47;;;1.30;;
11709;SDS011;5911;51.036;6.972;2024-02-14T05:19:35;0.98;;;0.95;;
11709;SDS011;5911;51.036;6.972;2024-02-14T05:22:03;1.15;;;1.05;;
11709;SDS011;5911;51.036;6.972;2024-02-14T05:24:30;1.00;;;0.93;;
11709;SDS011;5911;51.036;6.972;2024-02-14T05:26:58;1.90;;;0.90;;
11709;SDS011;5911;51.036;6.972;2024-02-14T05:29:25;1.13;;;1.02;;
11709;SDS011;5911;51.036;6.972;2024-02-14T05:31:53;1.25;;;1.10;;
11709;SDS011;5911;51.036;6.972;2024-02-14T05:34:23;0.93;;;0.90;;
11709;SDS011;5911;51.036;6.972;2024-02-14T05:36:51;1.77;;;1.00;;
11709;SDS011;5911;51.036;6.972;2024-02-14T05:39:18;2.67;;;1.10;;
11709;SDS011;5911;51.036;6.972;2024-02-14T05:41:46;1.17;;;1.07;;
11709;SDS011;5911;51.036;6.972;2024-02-14T05:44:14;2.47;;;1.25;;
11709;SDS011;5911;51.036;6.972;2024-02-14T05:46:41;1.50;;;1.20;;
11709;SDS011;5911;51.036;6.972;2024-02-14T05:49:09;1.35;;;1.10;;
11709;SDS011;5911;51.036;6.972;2024-02-14T05:51:38;1.48;;;1.38;;
11709;SDS011;5911;51.036;6.972;2024-02-14T05:54:07;1.70;;;1.42;;
11709;SDS011;5911;51.036;6.972;2024-02-14T05:56:34;1.45;;;1.10;;
11709;SDS011;5911;51.036;6.972;2024-02-14T05:59:02;1.73;;;1.10;;
11709;SDS011;5911;51.036;6.972;2024-02-14T06:01:30;1.63;;;1.10;;
11709;SDS011;5911;51.036;6.972;2024-02-14T06:03:58;1.40;;;1.20;;
11709;SDS011;5911;51.036;6.972;2024-02-14T06:06:25;1.02;;;0.90;;
11709;SDS011;5911;51.036;6.972;2024-02-14T06:08:54;1.30;;;1.20;;
11709;SDS011;5911;51.036;6.972;2024-02-14T06:11:24;1.35;;;1.25;;
11709;SDS011;5911;51.036;6.972;2024-02-14T06:13:52;1.73;;;1.00;;
11709;SDS011;5911;51.036;6.972;2024-02-14T06:16:19;2.28;;;1.50;;
11709;SDS011;5911;51.036;6.972;2024-02-14T06:18:47;1.58;;;1.13;;
11709;SDS011;5911;51.036;6.972;2024-02-14T06:21:15;2.33;;;1.27;;
11709;SDS011;5911;51.036;6.972;2024-02-14T06:23:42;1.40;;;1.00;;
11709;SDS011;5911;51.036;6.972;2024-02-14T06:26:14;1.23;;;1.10;;
11709;SDS011;5911;51.036;6.972;2024-02-14T06:28:41;2.05;;;1.02;;
11709;SDS011;5911;51.036;6.972;2024-02-14T06:31:09;1.47;;;1.10;;
11709;SDS011;5911;51.036;6.972;2024-02-14T06:33:37;1.20;;;1.10;;
11709;SDS011;5911;51.036;6.972;2024-02-14T06:36:04;1.27;;;1.17;;
11709;SDS011;5911;51.036;6.972;2024-02-14T06:38:32;1.33;;;1.20;;
11709;SDS011;5911;51.036;6.972;2024-02-14T06:41:00;1.35;;;0.88;;
11709;SDS011;5911;51.036;6.972;2024-02-14T06:43:29;1.00;;;0.82;;
11709;SDS011;5911;51.036;6.972;2024-02-14T06:45:56;1.10;;;0.97;;
11709;SDS011;5911;51.036;6.972;2024-02-14T06:48:24;1.88;;;1.17;;
11709;SDS011;5911;51.036;6.972;2024-02-14T06:50:52;1.50;;;1.20;;
11709;SDS011;5911;51.036;6.972;2024-02-14T06:53:19;1.42;;;1.20;;
11709;SDS011;5911;51.036;6.972;2024-02-14T06:55:47;1.55;;;1.38;;
11709;SDS011;5911;51.036;6.972;2024-02-14T06:58:14;1.40;;;1.30;;
11709;SDS011;5911;51.036;6.972;2024-02-14T07:00:43;1.20;;;1.10;;
11709;SDS011;5911;51.036;6.972;2024-02-14T07:03:11;1.45;;;1.20;;
11709;SDS011;5911;51.036;6.972;2024-02-14T07:05:38;1.27;;;1.17;;
11709;SDS011;5911;51.036;6.972;2024-02-14T07:08:08;1.35;;;1.00;;
11709;SDS011;5911;51.036;6.972;2024-02-14T07:10:35;2.42;;;1.30;;
11709;SDS011;5911;51.036;6.972;2024-02-14T07:13:03;1.33;;;1.08;;
11709;SDS011;5911;51.036;6.972;2024-02-14T07:15:29;1.23;;;1.00;;
11709;SDS011;5911;51.036;6.972;2024-02-14T07:17:58;1.20;;;1.10;;
11709;SDS011;5911;51.036;6.972;2024-02-14T07:20:26;1.77;;;1.10;;
11709;SDS011;5911;51.036;6.972;2024-02-14T07:22:54;1.42;;;1.17;;
11709;SDS011;5911;51.036;6.972;2024-02-14T07:25:22;1.20;;;1.10;;
11709;SDS011;5911;51.036;6.972;2024-02-14T07:27:50;2.42;;;1.00;;
11709;SDS011;5911;51.036;6.972;2024-02-14T07:30:17;1.27;;;1.10;;
11709;SDS011;5911;51.036;6.972;2024-02-14T07:32:45;1.53;;;1.00;;
11709;SDS011;5911;51.036;6.972;2024-02-14T07:35:14;1.53;;;1.20;;
11709;SDS011;5911;51.036;6.972;2024-02-14T07:37:42;2.10;;;1.40;;
11709;SDS011;5911;51.036;6.972;2024-02-14T07:40:10;1.40;;;1.30;;
11709;SDS011;5911;51.036;6.972;2024-02-14T07:42:41;1.40;;;1.30;;
11709;SDS011;5911;51.036;6.972;2024-02-14T07:45:09;2.13;;;1.63;;
11709;SDS011;5911;51.036;6.972;2024-02-14T07:47:36;2.87;;;1.83;;
11709;SDS011;5911;51.036;6.972;2024-02-14T07:50:04;3.28;;;1.88;;
11709;SDS011;5911;51.036;6.972;2024-02-14T07:52:33;2.00;;;1.60;;
11709;SDS011;5911;51.036;6.972;2024-02-14T07:55:02;2.47;;;1.83;;
11709;SDS011;5911;51.036;6.972;2024-02-14T07:57:30;3.15;;;1.52;;
11709;SDS011;5911;51.036;6.972;2024-02-14T07:59:57;2.60;;;1.70;;
11709;SDS011;5911;51.036;6.972;2024-02-14T08:02:25;2.42;;;1.65;;
11709;SDS011;5911;51.036;6.972;2024-02-14T08:04:53;2.87;;;1.73;;
11709;SDS011;5911;51.036;6.972;2024-02-14T08:07:21;4.27;;;2.23;;
11709;SDS011;5911;51.036;6.972;2024-02-14T08:09:50;3.40;;;2.30;;
11709;SDS011;5911;51.036;6.972;2024-02-14T08:12:17;3.45;;;2.20;;
11709;SDS011;5911;51.036;6.972;2024-02-14T08:14:44;2.97;;;1.80;;
11709;SDS011;5911;51.036;6.972;2024-02-14T08:17:13;2.33;;;1.85;;
11709;SDS011;5911;51.036;6.972;2024-02-14T08:19:41;3.20;;;2.47;;
11709;SDS011;5911;51.036;6.972;2024-02-14T08:22:08;3.60;;;1.60;;
11709;SDS011;5911;51.036;6.972;2024-02-14T08:24:36;1.67;;;1.45;;
11709;SDS011;5911;51.036;6.972;2024-02-14T08:27:05;2.17;;;1.67;;
11709;SDS011;5911;51.036;6.972;2024-02-14T08:29:33;1.75;;;1.50;;
11709;SDS011;5911;51.036;6.972;2024-02-14T08:32:01;3.70;;;1.70;;
11709;SDS011;5911;51.036;6.972;2024-02-14T08:34:29;3.33;;;1.50;;
11709;SDS011;5911;51.036;6.972;2024-02-14T08:36:57;3.30;;;1.77;;
11709;SDS011;5911;51.036;6.972;2024-02-14T08:39:24;3.05;;;1.95;;
11709;SDS011;5911;51.036;6.972;2024-02-14T08:41:52;4.35;;;2.47;;
11709;SDS011;5911;51.036;6.972;2024-02-14T08:44:21;2.87;;;1.63;;
11709;SDS011;5911;51.036;6.972;2024-02-14T08:46:48;3.33;;;1.85;;
11709;SDS011;5911;51.036;6.972;2024-02-14T08:49:16;2.08;;;1.55;;
11709;SDS011;5911;51.036;6.972;2024-02-14T08:51:44;2.30;;;1.77;;
11709;SDS011;5911;51.036;6.972;2024-02-14T08:54:12;2.03;;;1.52;;
11709;SDS011;5911;51.036;6.972;2024-02-14T08:56:40;1.73;;;1.48;;
11709;SDS011;5911;51.036;6.972;2024-02-14T08:59:07;2.87;;;1.57;;
11709;SDS011;5911;51.036;6.972;2024-02-14T09:01:36;2.28;;;1.55;;
11709;SDS011;5911;51.036;6.972;2024-02-14T09:04:04;2.35;;;1.77;;
11709;SDS011;5911;51.036;6.972;2024-02-14T09:06:31;1.63;;;1.45;;
11709;SDS011;5911;51.036;6.972;2024-02-14T09:08:59;2.10;;;1.20;;
11709;SDS011;5911;51.036;6.972;2024-02-14T09:11:27;2.07;;;1.50;;
11709;SDS011;5911;51.036;6.972;2024-02-14T09:13:54;2.03;;;1.37;;
11709;SDS011;5911;51.036;6.972;2024-02-14T09:16:28;1.52;;;1.40;;
11709;SDS011;5911;51.036;6.972;2024-02-14T09:18:57;2.67;;;1.50;;
11709;SDS011;5911;51.036;6.972;2024-02-14T09:21:25;2.50;;;1.47;;
11709;SDS011;5911;51.036;6.972;2024-02-14T09:23:54;2.60;;;1.40;;
11709;SDS011;5911;51.036;6.972;2024-02-14T09:26:21;1.58;;;1.20;;
11709;SDS011;5911;51.036;6.972;2024-02-14T09:28:49;1.98;;;1.38;;
11709;SDS011;5911;51.036;6.972;2024-02-14T09:31:19;2.58;;;1.50;;
11709;SDS011;5911;51.036;6.972;2024-02-14T09:33:47;2.17;;;1.40;;
11709;SDS011;5911;51.036;6.972;2024-02-14T09:36:17;1.58;;;1.00;;
11709;SDS011;5911;51.036;6.972;2024-02-14T09:38:46;2.15;;;1.23;;
11709;SDS011;5911;51.036;6.972;2024-02-14T09:41:14;3.47;;;1.20;;
11709;SDS011;5911;51.036;6.972;2024-02-14T09:43:43;2.03;;;1.10;;
11709;SDS011;5911;51.036;6.972;2024-02-14T09:46:12;2.47;;;1.40;;
11709;SDS011;5911;51.036;6.972;2024-02-14T09:48:40;1.42;;;1.05;;
11709;SDS011;5911;51.036;6.972;2024-02-14T09:51:09;2.33;;;1.52;;
11709;SDS011;5911;51.036;6.972;2024-02-14T09:53:38;2.80;;;1.20;;
11709;SDS011;5911;51.036;6.972;2024-02-14T09:56:06;3.17;;;1.23;;
11709;SDS011;5911;51.036;6.972;2024-02-14T09:58:36;1.87;;;1.20;;
11709;SDS011;5911;51.036;6.972;2024-02-14T10:01:04;2.07;;;1.20;;
11709;SDS011;5911;51.036;6.972;2024-02-14T10:03:32;2.00;;;0.97;;
11709;SDS011;5911;51.036;6.972;2024-02-14T10:06:00;2.13;;;1.20;;
11709;SDS011;5911;51.036;6.972;2024-02-14T10:08:28;1.75;;;0.93;;
11709;SDS011;5911;51.036;6.972;2024-02-14T10:10:57;4.68;;;1.13;;
11709;SDS011;5911;51.036;6.972;2024-02-14T10:13:26;2.45;;;1.15;;
11709;SDS011;5911;51.036;6.972;2024-02-14T10:15:54;1.77;;;1.02;;
11709;SDS011;5911;51.036;6.972;2024-02-14T10:18:22;1.98;;;1.25;;
11709;SDS011;5911;51.036;6.972;2024-02-14T10:20:54;2.63;;;1.08;;
11709;SDS011;5911;51.036;6.972;2024-02-14T10:23:22;4.07;;;1.10;;
11709;SDS011;5911;51.036;6.972;2024-02-14T10:25:50;1.67;;;0.80;;
11709;SDS011;5911;51.036;6.972;2024-02-14T10:28:20;1.77;;;1.00;;
11709;SDS011;5911;51.036;6.972;2024-02-14T10:30:58;2.35;;;1.00;;
11709;SDS011;5911;51.036;6.972;2024-02-14T10:33:27;2.72;;;0.88;;
11709;SDS011;5911;51.036;6.972;2024-02-14T10:35:56;2.40;;;0.90;;
11709;SDS011;5911;51.036;6.972;2024-02-14T10:38:29;2.55;;;1.10;;
11709;SDS011;5911;51.036;6.972;2024-02-14T10:40:58;1.10;;;0.90;;
11709;SDS011;5911;51.036;6.972;2024-02-14T10:43:27;1.13;;;0.88;;
11709;SDS011;5911;51.036;6.972;2024-02-14T10:45:56;2.40;;;1.17;;
11709;SDS011;5911;51.036;6.972;2024-02-14T10:48:24;2.58;;;1.67;;
11709;SDS011;5911;51.036;6.972;2024-02-14T10:50:54;8.43;;;1.42;;
11709;SDS011;5911;51.036;6.972;2024-02-14T10:53:23;2.03;;;1.27;;
11709;SDS011;5911;51.036;6.972;2024-02-14T10:55:52;3.15;;;1.13;;
11709;SDS011;5911;51.036;6.972;2024-02-14T10:58:20;2.90;;;1.10;;
11709;SDS011;5911;51.036;6.972;2024-02-14T11:00:52;3.35;;;1.20;;
11709;SDS011;5911;51.036;6.972;2024-02-14T11:03:20;4.03;;;1.20;;
11709;SDS011;5911;51.036;6.972;2024-02-14T11:05:48;1.33;;;0.95;;
11709;SDS011;5911;51.036;6.972;2024-02-14T11:08:18;1.45;;;0.80;;
11709;SDS011;5911;51.036;6.972;2024-02-14T11:10:52;2.58;;;1.35;;
11709;SDS011;5911;51.036;6.972;2024-02-14T11:13:20;4.43;;;1.35;;
11709;SDS011;5911;51.036;6.972;2024-02-14T11:15:51;4.03;;;1.30;;
11709;SDS011;5911;51.036;6.972;2024-02-14T11:18:25;1.88;;;1.13;;
11709;SDS011;5911;51.036;6.972;2024-02-14T11:20:53;0.80;;;0.70;;
11709;SDS011;5911;51.036;6.972;2024-02-14T11:23:23;3.13;;;1.20;;
11709;SDS011;5911;51.036;6.972;2024-02-14T11:25:59;1.38;;;0.90;;
11709;SDS011;5911;51.036;6.972;2024-02-14T11:28:26;2.33;;;1.00;;
11709;SDS011;5911;51.036;6.972;2024-02-14T11:30:58;2.08;;;1.00;;
11709;SDS011;5911;51.036;6.972;2024-02-14T11:33:28;2.38;;;1.10;;
11709;SDS011;5911;51.036;6.972;2024-02-14T11:35:56;2.78;;;1.17;;
11709;SDS011;5911;51.036;6.972;2024-02-14T11:38:25;3.53;;;1.27;;
11709;SDS011;5911;51.036;6.972;2024-02-14T11:40:53;3.75;;;1.45;;
11709;SDS011;5911;51.036;6.972;2024-02-14T11:43:23;3.17;;;0.98;;
11709;SDS011;5911;51.036;6.972;2024-02-14T11:45:50;2.78;;;1.15;;
11709;SDS011;5911;51.036;6.972;2024-02-14T11:48:18;2.75;;;1.67;;
11709;SDS011;5911;51.036;6.972;2024-02-14T11:50:48;2.58;;;1.20;;
11709;SDS011;5911;51.036;6.972;2024-02-14T11:53:16;2.88;;;1.38;;
11709;SDS011;5911;51.036;6.972;2024-02-14T11:55:45;1.27;;;1.15;;
11709;SDS011;5911;51.036;6.972;2024-02-14T11:58:14;1.50;;;1.10;;
11709;SDS011;5911;51.036;6.972;2024-02-14T12:00:42;2.63;;;1.58;;
11709;SDS011;5911;51.036;6.972;2024-02-14T12:03:11;1.33;;;1.15;;
11709;SDS011;5911;51.036;6.972;2024-02-14T12:05:39;2.03;;;1.13;;
11709;SDS011;5911;51.036;6.972;2024-02-14T12:08:09;3.13;;;1.08;;
11709;SDS011;5911;51.036;6.972;2024-02-14T12:10:37;1.20;;;0.93;;
11709;SDS011;5911;51.036;6.972;2024-02-14T12:13:06;2.67;;;1.25;;
11709;SDS011;5911;51.036;6.972;2024-02-14T12:15:38;2.40;;;0.80;;
11709;SDS011;5911;51.036;6.972;2024-02-14T12:18:05;1.23;;;0.70;;
11709;SDS011;5911;51.036;6.972;2024-02-14T12:20:33;1.13;;;0.82;;
11709;SDS011;5911;51.036;6.972;2024-02-14T12:23:01;1.60;;;1.10;;
11709;SDS011;5911;51.036;6.972;2024-02-14T12:25:30;1.25;;;0.80;;
11709;SDS011;5911;51.036;6.972;2024-02-14T12:27:59;1.55;;;1.00;;
11709;SDS011;5911;51.036;6.972;2024-02-14T12:30:41;4.63;;;0.82;;
11709;SDS011;5911;51.036;6.972;2024-02-14T12:33:10;1.45;;;0.90;;
11709;SDS011;5911;51.036;6.972;2024-02-14T12:35:37;1.50;;;0.77;;
11709;SDS011;5911;51.036;6.972;2024-02-14T12:38:08;0.85;;;0.55;;
11709;SDS011;5911;51.036;6.972;2024-02-14T12:40:37;1.58;;;0.60;;
11709;SDS011;5911;51.036;6.972;2024-02-14T12:43:04;2.30;;;0.80;;
11709;SDS011;5911;51.036;6.972;2024-02-14T12:45:32;0.75;;;0.60;;
11709;SDS011;5911;51.036;6.972;2024-02-14T12:48:00;0.90;;;0.80;;
11709;SDS011;5911;51.036;6.972;2024-02-14T12:50:27;0.77;;;0.70;;
11709;SDS011;5911;51.036;6.972;2024-02-14T12:52:55;1.42;;;0.77;;
11709;SDS011;5911;51.036;6.972;2024-02-14T12:55:23;0.90;;;0.57;;
11709;SDS011;5911;51.036;6.972;2024-02-14T12:57:53;1.20;;;0.80;;
11709;SDS011;5911;51.036;6.972;2024-02-14T13:00:20;1.05;;;0.80;;
11709;SDS011;5911;51.036;6.972;2024-02-14T13:02:48;1.60;;;1.02;;
11709;SDS011;5911;51.036;6.972;2024-02-14T13:05:16;1.50;;;1.10;;
11709;SDS011;5911;51.036;6.972;2024-02-14T13:07:44;1.48;;;0.88;;
11709;SDS011;5911;51.036;6.972;2024-02-14T13:10:13;1.90;;;1.35;;
11709;SDS011;5911;51.036;6.972;2024-02-14T13:12:40;0.98;;;0.90;;
11709;SDS011;5911;51.036;6.972;2024-02-14T13:15:11;0.90;;;0.75;;
11709;SDS011;5911;51.036;6.972;2024-02-14T13:17:38;1.85;;;0.80;;
11709;SDS011;5911;51.036;6.972;2024-02-14T13:20:06;0.80;;;0.80;;
11709;SDS011;5911;51.036;6.972;2024-02-14T13:22:34;1.85;;;0.95;;
11709;SDS011;5911;51.036;6.972;2024-02-14T13:25:02;1.02;;;0.80;;
11709;SDS011;5911;51.036;6.972;2024-02-14T13:27:31;0.82;;;0.73;;
11709;SDS011;5911;51.036;6.972;2024-02-14T13:29:59;0.70;;;0.65;;
11709;SDS011;5911;51.036;6.972;2024-02-14T13:32:28;1.58;;;0.70;;
11709;SDS011;5911;51.036;6.972;2024-02-14T13:34:56;0.93;;;0.70;;
11709;SDS011;5911;51.036;6.972;2024-02-14T13:37:24;0.93;;;0.68;;
11709;SDS011;5911;51.036;6.972;2024-02-14T13:39:51;0.70;;;0.70;;
11709;SDS011;5911;51.036;6.972;2024-02-14T13:42:19;1.73;;;0.90;;
11709;SDS011;5911;51.036;6.972;2024-02-14T13:44:46;1.30;;;0.80;;
11709;SDS011;5911;51.036;6.972;2024-02-14T13:47:17;1.55;;;1.10;;
11709;SDS011;5911;51.036;6.972;2024-02-14T13:49:46;0.80;;;0.70;;
11709;SDS011;5911;51.036;6.972;2024-02-14T13:52:13;1.58;;;0.90;;
11709;SDS011;5911;51.036;6.972;2024-02-14T13:54:41;1.40;;;0.85;;
11709;SDS011;5911;51.036;6.972;2024-02-14T13:57:09;1.23;;;1.10;;
11709;SDS011;5911;51.036;6.972;2024-02-14T13:59:38;1.27;;;0.90;;
11709;SDS011;5911;51.036;6.972;2024-02-14T14:02:05;0.98;;;0.80;;
11709;SDS011;5911;51.036;6.972;2024-02-14T14:04:33;0.77;;;0.77;;
11709;SDS011;5911;51.036;6.972;2024-02-14T14:07:02;1.00;;;0.80;;
11709;SDS011;5911;51.036;6.972;2024-02-14T14:09:31;2.28;;;1.05;;
11709;SDS011;5911;51.036;6.972;2024-02-14T14:11:59;0.85;;;0.80;;
11709;SDS011;5911;51.036;6.972;2024-02-14T14:14:27;2.10;;;0.90;;
11709;SDS011;5911;51.036;6.972;2024-02-14T14:16:55;1.38;;;0.95;;
11709;SDS011;5911;51.036;6.972;2024-02-14T14:19:23;1.27;;;0.73;;
11709;SDS011;5911;51.036;6.972;2024-02-14T14:21:51;1.08;;;0.85;;
11709;SDS011;5911;51.036;6.972;2024-02-14T14:24:19;0.63;;;0.63;;
11709;SDS011;5911;51.036;6.972;2024-02-14T14:26:47;0.93;;;0.90;;
11709;SDS011;5911;51.036;6.972;2024-02-14T14:29:14;1.17;;;0.75;;
11709;SDS011;5911;51.036;6.972;2024-02-14T14:31:42;0.80;;;0.70;;
11709;SDS011;5911;51.036;6.972;2024-02-14T14:34:10;1.05;;;0.90;;
11709;SDS011;5911;51.036;6.972;2024-02-14T14:36:38;0.77;;;0.73;;
11709;SDS011;5911;51.036;6.972;2024-02-14T14:39:07;1.10;;;1.00;;
11709;SDS011;5911;51.036;6.972;2024-02-14T14:41:38;1.00;;;0.90;;
11709;SDS011;5911;51.036;6.972;2024-02-14T14:44:08;1.23;;;1.10;;
11709;SDS011;5911;51.036;6.972;2024-02-14T14:46:35;1.55;;;1.25;;
11709;SDS011;5911;51.036;6.972;2024-02-14T14:49:08;0.90;;;0.90;;
11709;SDS011;5911;51.036;6.972;2024-02-14T14:51:36;3.28;;;1.85;;
11709;SDS011;5911;51.036;6.972;2024-02-14T14:54:04;1.83;;;1.45;;
11709;SDS011;5911;51.036;6.972;2024-02-14T14:56:32;2.00;;;1.40;;
11709;SDS011;5911;51.036;6.972;2024-02-14T14:59:01;1.27;;;1.00;;
11709;SDS011;5911;51.036;6.972;2024-02-14T15:01:29;1.63;;;1.30;;
11709;SDS011;5911;51.036;6.972;2024-02-14T15:03:57;1.52;;;1.23;;
11709;SDS011;5911;51.036;6.972;2024-02-14T15:06:25;1.73;;;1.52;;